Time;durP1;ratioP1;P1;durP2;ratioP2;P2;SDS_P1;SDS_P2;PMS_P1;PMS_P2;Temp;Humidity;BMP_temperature;BMP_pressure;BME280_temperature;BME280_humidity;BME280_pressure;Samples;Min_cycle;Max_cycle;Signal;HPM_P1;HPM_P2
2024/04/13 00:00:48;;;;;;;2.80;1.88;;;;;;;13.50;95.19;101350.16;5409788;26;19999;-62
2024/04/13 00:03:15;;;;;;;4.53;2.08;;;;;;;13.47;95.16;101346.13;5412739;26;20968;-62
2024/04/13 00:05:45;;;;;;;2.83;1.55;;;;;;;13.45;95.36;101342.84;5411853;26;20333;-62
2024/04/13 00:08:12;;;;;;;5.00;2.45;;;;;;;13.43;95.36;101350.75;5412105;26;20052;-62
2024/04/13 00:10:42;;;;;;;5.03;1.58;;;;;;;13.43;95.87;101350.75;5411974;26;20018;-62
2024/04/13 00:13:11;;;;;;;8.32;1.70;;;;;;;13.43;95.42;101353.53;5412526;26;20092;-62
2024/04/13 00:15:39;;;;;;;4.82;1.90;;;;;;;13.40;95.41;101351.44;5412053;26;20449;-63
2024/04/13 00:18:06;;;;;;;1.95;1.58;;;;;;;13.37;95.38;101352.13;5411603;26;20000;-62
2024/04/13 00:20:34;;;;;;;2.97;1.90;;;;;;;13.35;95.69;101357.25;5411886;26;20547;-62
2024/04/13 00:23:01;;;;;;;4.68;1.67;;;;;;;13.32;95.59;101357.94;5411569;26;20023;-62
2024/04/13 00:25:32;;;;;;;4.47;2.20;;;;;;;13.29;95.77;101353.88;5411418;26;20007;-63
2024/04/13 00:27:59;;;;;;;1.98;1.45;;;;;;;13.29;95.81;101347.53;5439657;26;20040;-62
2024/04/13 00:30:27;;;;;;;2.55;1.60;;;;;;;13.29;95.83;101339.19;5394730;26;20085;-62
2024/04/13 00:32:55;;;;;;;3.03;1.83;;;;;;;13.26;95.60;101342.66;5385924;26;20003;-63
2024/04/13 00:35:23;;;;;;;2.63;1.98;;;;;;;13.22;95.60;101336.97;5409716;26;20136;-62
2024/04/13 00:37:51;;;;;;;1.95;1.58;;;;;;;13.20;95.60;101330.97;5411741;26;20129;-63
2024/04/13 00:40:18;;;;;;;6.03;1.98;;;;;;;13.16;95.70;101329.22;5410719;26;20460;-62
2024/04/13 00:42:45;;;;;;;4.93;2.08;;;;;;;13.12;95.78;101326.34;5411066;26;20450;-62
2024/04/13 00:45:13;;;;;;;5.32;1.95;;;;;;;13.10;96.12;101336.19;5411287;26;20103;-62
2024/04/13 00:47:40;;;;;;;4.82;2.33;;;;;;;13.06;95.98;101324.09;5411236;26;20351;-62
2024/04/13 00:50:11;;;;;;;2.88;1.83;;;;;;;13.05;96.25;101317.72;5411390;26;20022;-62
2024/04/13 00:52:42;;;;;;;3.45;1.98;;;;;;;13.03;96.29;101310.88;5409831;26;20022;-62
2024/04/13 00:55:10;;;;;;;8.20;2.15;;;;;;;13.03;96.17;101305.31;5408987;26;20028;-62
2024/04/13 00:57:37;;;;;;;2.40;2.00;;;;;;;13.05;96.60;101306.59;5409131;26;20016;-62
2024/04/13 01:00:05;;;;;;;3.03;1.83;;;;;;;13.05;96.71;101301.03;5411099;26;20018;-62
2024/04/13 01:02:33;;;;;;;4.38;1.55;;;;;;;13.06;96.72;101310.19;5410236;26;20754;-62
2024/04/13 01:05:00;;;;;;;5.20;1.90;;;;;;;13.05;96.58;101314.16;5410570;26;20015;-62
2024/04/13 01:07:28;;;;;;;3.22;1.70;;;;;;;13.05;96.71;101311.38;5410619;26;20085;-62
2024/04/13 01:09:55;;;;;;;3.97;2.10;;;;;;;13.06;96.82;101307.41;5410199;26;20052;-62
2024/04/13 01:12:22;;;;;;;2.45;1.50;;;;;;;13.05;96.81;101311.38;5409588;26;20000;-62
2024/04/13 01:14:51;;;;;;;5.20;1.63;;;;;;;13.05;96.94;101312.16;5410028;26;20399;-62
2024/04/13 01:17:19;;;;;;;5.70;1.80;;;;;;;13.04;96.84;101304.19;5409280;26;20442;-62
2024/04/13 01:19:46;;;;;;;8.07;2.92;;;;;;;12.99;96.75;101301.63;5410350;26;20015;-62
2024/04/13 01:22:15;;;;;;;4.53;1.88;;;;;;;12.97;97.00;101309.50;5410225;26;20690;-62
2024/04/13 01:24:42;;;;;;;6.80;2.38;;;;;;;12.90;96.73;101293.41;5410685;26;20364;-62
2024/04/13 01:27:11;;;;;;;6.82;2.38;;;;;;;12.84;96.98;101292.81;5410715;26;20004;-62
2024/04/13 01:29:40;;;;;;;6.70;2.33;;;;;;;12.78;97.06;101293.41;5410293;26;20329;-62
2024/04/13 01:32:07;;;;;;;4.88;2.33;;;;;;;12.75;96.97;101294.91;5411259;26;20022;-62
2024/04/13 01:34:35;;;;;;;4.40;1.75;;;;;;;12.73;97.19;101288.88;5376479;26;20367;-62
2024/04/13 01:37:02;;;;;;;7.15;2.13;;;;;;;12.72;97.23;101275.34;5373713;26;20031;-62
2024/04/13 01:39:31;;;;;;;4.18;2.13;;;;;;;12.71;97.18;101268.97;5400259;26;20048;-62
2024/04/13 01:41:59;;;;;;;4.57;2.05;;;;;;;12.73;97.57;101280.53;5407616;26;20019;-62
2024/04/13 01:44:27;;;;;;;4.95;1.98;;;;;;;12.72;97.29;101273.38;5399589;26;20004;-63
2024/04/13 01:46:58;;;;;;;12.07;2.67;;;;;;;12.70;97.11;101256.25;5405764;26;20015;-62
2024/04/13 01:49:25;;;;;;;4.65;2.42;;;;;;;12.71;97.62;101260.63;5410363;26;20036;-62
2024/04/13 01:51:53;;;;;;;3.72;2.25;;;;;;;12.71;97.66;101263.41;5410025;26;20000;-62
2024/04/13 01:54:20;;;;;;;5.00;2.30;;;;;;;12.70;97.28;101253.47;5410446;26;20015;-62
2024/04/13 01:56:48;;;;;;;8.30;2.22;;;;;;;12.72;97.86;101255.91;5408420;26;20004;-62
2024/04/13 01:59:15;;;;;;;5.30;2.00;;;;;;;12.72;97.65;101253.13;5410243;26;20469;-62
2024/04/13 02:01:42;;;;;;;3.63;1.90;;;;;;;12.73;97.86;101255.53;5410309;26;20003;-62
2024/04/13 02:04:11;;;;;;;5.43;1.77;;;;;;;12.74;97.91;101248.84;5410285;26;20004;-62
2024/04/13 02:06:38;;;;;;;4.82;1.67;;;;;;;12.73;98.07;101244.41;5409897;26;20026;-62
2024/04/13 02:09:06;;;;;;;3.05;1.88;;;;;;;12.72;97.75;101242.81;5406138;26;20336;-62
2024/04/13 02:11:33;;;;;;;8.27;2.35;;;;;;;12.72;97.68;101236.44;5374425;26;20719;-62
2024/04/13 02:14:01;;;;;;;8.93;3.25;;;;;;;12.72;98.14;101245.59;5374158;26;20011;-62
2024/04/13 02:16:28;;;;;;;4.97;1.90;;;;;;;12.73;98.08;101252.75;5374386;26;20000;-62
2024/04/13 02:18:56;;;;;;;9.93;2.30;;;;;;;12.73;98.18;101238.06;5373241;26;20005;-62
2024/04/13 02:21:24;;;;;;;4.03;2.90;;;;;;;12.71;98.35;101232.03;5374292;26;20023;-62
2024/04/13 02:23:52;;;;;;;7.25;1.80;;;;;;;12.69;98.46;101229.63;5372795;26;20451;-62
2024/04/13 02:26:20;;;;;;;10.30;2.63;;;;;;;12.64;98.73;101238.19;5371745;26;20004;-61
2024/04/13 02:28:47;;;;;;;4.53;1.85;;;;;;;12.61;98.72;101224.19;5373988;26;20462;-62
2024/04/13 02:31:15;;;;;;;4.63;2.15;;;;;;;12.60;99.07;101217.81;5374717;26;20016;-62
2024/04/13 02:33:42;;;;;;;3.30;2.15;;;;;;;12.59;99.18;101210.66;5407772;26;20004;-62
2024/04/13 02:36:10;;;;;;;3.20;2.00;;;;;;;12.57;99.16;101192.72;5406111;26;20370;-61
2024/04/13 02:38:39;;;;;;;3.78;1.38;;;;;;;12.55;99.32;101200.59;5407207;26;20027;-61
2024/04/13 02:41:07;;;;;;;2.47;1.48;;;;;;;12.54;99.17;101197.00;5408594;26;20477;-61
2024/04/13 02:43:35;;;;;;;7.22;2.00;;;;;;;12.54;99.23;101208.09;5408330;26;20015;-62
2024/04/13 02:46:07;;;;;;;3.78;2.40;;;;;;;12.49;99.39;101188.91;5403634;26;20003;-61
2024/04/13 02:48:44;;;;;;;5.50;2.13;;;;;;;12.48;99.29;101181.72;5407912;26;20006;-61
2024/04/13 02:51:14;;;;;;;4.40;1.52;;;;;;;12.47;99.05;101190.41;5394660;26;20020;-60
2024/04/13 02:53:41;;;;;;;4.43;1.80;;;;;;;12.42;99.28;101191.41;5408414;26;20080;-61
2024/04/13 02:56:09;;;;;;;3.80;1.67;;;;;;;12.39;99.33;101194.09;5408494;26;20015;-60
2024/04/13 02:58:37;;;;;;;3.17;1.70;;;;;;;12.38;99.62;101192.47;5407806;26;20557;-61
2024/04/13 03:01:08;;;;;;;6.20;1.67;;;;;;;12.37;99.66;101180.53;5521582;21;20607;-60
2024/04/13 03:03:35;;;;;;;5.10;1.45;;;;;;;12.36;100.00;101173.38;5464936;26;20014;-60
2024/04/13 03:06:07;;;;;;;4.05;1.60;;;;;;;12.36;99.74;101172.56;5466710;26;20011;-60
2024/04/13 03:08:35;;;;;;;4.82;1.92;;;;;;;12.34;99.69;101172.91;5463827;26;20026;-60
2024/04/13 03:11:03;;;;;;;2.15;1.48;;;;;;;12.34;99.62;101161.81;5472179;26;20018;-61
2024/04/13 03:13:31;;;;;;;3.20;1.58;;;;;;;12.35;99.93;101168.97;5457837;26;20332;-60
2024/04/13 03:16:05;;;;;;;8.13;1.50;;;;;;;12.35;100.00;101155.09;5466922;26;20343;-60
2024/04/13 03:18:34;;;;;;;2.15;1.10;;;;;;;12.36;100.00;101140.06;5464120;26;20336;-60
2024/04/13 03:21:01;;;;;;;4.28;1.50;;;;;;;12.38;99.97;101137.75;5445864;26;20333;-60
2024/04/13 03:23:30;;;;;;;3.10;1.20;;;;;;;12.40;100.00;101135.44;5457102;26;20987;-60
2024/04/13 03:25:57;;;;;;;4.13;1.15;;;;;;;12.40;100.00;101127.09;5461805;26;20015;-61
2024/04/13 03:28:30;;;;;;;4.82;1.15;;;;;;;12.42;99.94;101113.66;5467326;26;20002;-61
2024/04/13 03:30:57;;;;;;;4.75;1.30;;;;;;;12.43;99.81;101106.97;5466266;26;20013;-60
2024/04/13 03:33:25;;;;;;;1.40;1.30;;;;;;;12.42;100.00;101108.13;5480468;26;19998;-61
2024/04/13 03:35:54;;;;;;;6.03;1.50;;;;;;;12.41;99.78;101109.28;5455072;26;20022;-60
2024/04/13 03:38:21;;;;;;;4.15;1.30;;;;;;;12.39;99.84;101122.69;5470476;26;20014;-61
2024/04/13 03:41:00;;;;;;;2.50;1.02;;;;;;;12.37;99.91;101118.66;5477347;26;20013;-61
2024/04/13 03:43:29;;;;;;;1.98;1.23;;;;;;;12.37;99.97;101125.00;5454858;26;20017;-61
2024/04/13 03:45:57;;;;;;;3.88;1.20;;;;;;;12.38;100.00;101118.31;5473690;26;20082;-61
2024/04/13 03:48:25;;;;;;;1.20;1.02;;;;;;;12.40;100.00;101118.75;5466715;26;20035;-62
2024/04/13 03:50:52;;;;;;;2.88;1.20;;;;;;;12.41;99.85;101111.25;5457390;26;20111;-62
2024/04/13 03:53:20;;;;;;;4.80;1.52;;;;;;;12.42;99.90;101115.63;5464013;26;20010;-62
2024/04/13 03:55:48;;;;;;;4.68;1.23;;;;;;;12.43;99.99;101111.72;5462600;26;20026;-62
2024/04/13 03:58:16;;;;;;;4.68;1.52;;;;;;;12.44;99.94;101116.94;5463530;26;20377;-62
2024/04/13 04:00:43;;;;;;;8.20;2.38;;;;;;;12.45;99.71;101121.31;5459268;26;20018;-62
2024/04/13 04:03:12;;;;;;;3.90;1.80;;;;;;;12.47;99.89;101124.53;5466928;26;20006;-62
2024/04/13 04:05:39;;;;;;;3.72;0.98;;;;;;;12.49;99.62;101122.25;5466751;26;19998;-62
2024/04/13 04:08:08;;;;;;;2.25;1.20;;;;;;;12.50;100.00;101120.25;5464076;26;20018;-62
2024/04/13 04:10:35;;;;;;;3.72;1.20;;;;;;;12.51;100.00;101130.22;5474628;26;20034;-62
2024/04/13 04:13:05;;;;;;;2.55;0.88;;;;;;;12.50;99.91;101123.84;5475504;26;20017;-62
2024/04/13 04:15:33;;;;;;;2.88;1.15;;;;;;;12.50;100.00;101123.84;5458817;26;20007;-62
2024/04/13 04:18:05;;;;;;;1.35;1.13;;;;;;;12.48;99.72;101120.63;5448477;26;19999;-62
2024/04/13 04:20:33;;;;;;;6.47;1.30;;;;;;;12.47;100.00;101116.22;5461360;26;20010;-62
2024/04/13 04:23:01;;;;;;;2.70;1.52;;;;;;;12.47;100.00;101112.66;5458239;26;20003;-62
2024/04/13 04:25:29;;;;;;;5.55;2.42;;;;;;;12.44;100.00;101108.59;5469611;26;20006;-63
2024/04/13 04:27:57;;;;;;;1.88;1.10;;;;;;;12.45;100.00;101114.94;5463766;26;20002;-62
2024/04/13 04:30:24;;;;;;;3.03;1.17;;;;;;;12.45;100.00;101110.19;5464673;25;20017;-63
2024/04/13 04:32:52;;;;;;;3.63;1.15;;;;;;;12.43;99.93;101112.53;5463047;26;20011;-62
2024/04/13 04:35:20;;;;;;;3.35;0.80;;;;;;;12.44;99.95;101108.59;5468888;26;20048;-62
2024/04/13 04:37:48;;;;;;;4.07;1.10;;;;;;;12.43;100.00;101095.84;5453299;26;20010;-62
2024/04/13 04:40:16;;;;;;;1.55;0.75;;;;;;;12.42;100.00;101105.34;5456751;26;20003;-62
2024/04/13 04:42:43;;;;;;;2.33;0.90;;;;;;;12.41;99.90;101103.75;5466237;26;20501;-62
2024/04/13 04:45:11;;;;;;;4.28;0.85;;;;;;;12.42;99.81;101104.53;5458777;26;20390;-62
2024/04/13 04:47:38;;;;;;;5.13;1.30;;;;;;;12.42;99.70;101099.78;5473060;26;20010;-62
2024/04/13 04:50:06;;;;;;;3.42;0.80;;;;;;;12.41;99.86;101092.63;5461246;26;20003;-62
2024/04/13 04:52:34;;;;;;;0.93;0.85;;;;;;;12.41;100.00;101092.63;5470719;26;20090;-63
2024/04/13 04:55:01;;;;;;;3.65;1.27;;;;;;;12.40;99.43;101092.97;5467330;26;20016;-62
2024/04/13 04:57:29;;;;;;;4.43;1.00;;;;;;;12.36;99.70;101079.00;5462739;26;20732;-62
2024/04/13 04:59:57;;;;;;;2.15;0.82;;;;;;;12.36;99.58;101090.09;5463621;26;20082;-63
2024/04/13 05:02:24;;;;;;;2.53;1.30;;;;;;;12.34;99.71;101084.06;5464137;26;20400;-63
2024/04/13 05:04:52;;;;;;;3.55;1.00;;;;;;;12.34;99.53;101086.84;5456794;26;20019;-62
2024/04/13 05:07:19;;;;;;;1.90;0.57;;;;;;;12.34;99.53;101086.06;5461638;26;20015;-62
2024/04/13 05:09:47;;;;;;;2.53;0.55;;;;;;;12.33;99.83;101084.41;5460103;26;20039;-63
2024/04/13 05:12:14;;;;;;;6.22;1.17;;;;;;;12.33;99.66;101085.22;5465013;26;20035;-62
2024/04/13 05:14:42;;;;;;;3.00;0.80;;;;;;;12.34;99.61;101077.72;5449158;26;20017;-62
2024/04/13 05:17:13;;;;;;;4.32;1.10;;;;;;;12.33;99.58;101076.09;5473203;26;20026;-62
2024/04/13 05:19:40;;;;;;;1.75;0.70;;;;;;;12.32;99.40;101072.50;5466786;26;19998;-62
2024/04/13 05:22:08;;;;;;;3.15;0.98;;;;;;;12.33;99.47;101076.09;5457676;26;20029;-62
2024/04/13 05:24:37;;;;;;;1.60;0.77;;;;;;;12.33;99.60;101067.75;5481764;26;20011;-62
2024/04/13 05:27:06;;;;;;;3.30;0.63;;;;;;;12.35;99.61;101076.53;5448033;26;20023;-62
2024/04/13 05:29:35;;;;;;;3.03;0.85;;;;;;;12.35;99.86;101071.00;5471076;26;19998;-62
2024/04/13 05:32:07;;;;;;;1.40;0.70;;;;;;;12.32;99.51;101064.16;5465330;26;20007;-63
2024/04/13 05:34:34;;;;;;;2.20;0.97;;;;;;;12.31;99.55;101070.88;5447625;26;20365;-62
2024/04/13 05:37:02;;;;;;;4.97;1.02;;;;;;;12.31;99.72;101053.44;5459443;26;20002;-62
2024/04/13 05:39:30;;;;;;;1.38;0.60;;;;;;;12.27;99.79;101061.63;5458208;26;20349;-63
2024/04/13 05:41:58;;;;;;;2.78;1.05;;;;;;;12.26;99.91;101065.56;5454329;26;20010;-62
2024/04/13 05:44:25;;;;;;;2.05;0.57;;;;;;;12.28;99.92;101071.59;5456752;26;20373;-63
2024/04/13 05:46:53;;;;;;;2.15;0.43;;;;;;;12.27;99.79;101072.75;5456508;26;20401;-62
2024/04/13 05:49:20;;;;;;;2.75;0.57;;;;;;;12.28;99.75;101068.00;5449492;26;20082;-62
2024/04/13 05:51:51;;;;;;;2.47;0.80;;;;;;;12.29;99.76;101066.81;5447879;26;20017;-62
2024/04/13 05:54:18;;;;;;;1.05;0.38;;;;;;;12.28;99.54;101066.03;5469397;26;20002;-62
2024/04/13 05:56:46;;;;;;;2.95;0.57;;;;;;;12.28;99.74;101068.00;5446137;26;20017;-62
2024/04/13 05:59:14;;;;;;;0.60;0.45;;;;;;;12.26;99.71;101068.34;5448589;26;20589;-62
2024/04/13 06:01:41;;;;;;;0.90;0.40;;;;;;;12.27;99.61;101074.69;5458092;26;20002;-62
2024/04/13 06:04:09;;;;;;;3.58;0.88;;;;;;;12.27;99.79;101069.97;5479672;26;20018;-62
2024/04/13 06:06:37;;;;;;;3.33;0.55;;;;;;;12.27;99.71;101069.97;5471581;26;20017;-62
2024/04/13 06:09:05;;;;;;;0.80;0.40;;;;;;;12.29;99.57;101066.81;5462813;26;20003;-62
2024/04/13 06:11:33;;;;;;;1.85;0.75;;;;;;;12.28;99.26;101060.50;5490277;25;20449;-62
2024/04/13 06:14:00;;;;;;;2.15;0.60;;;;;;;12.32;99.26;101060.56;5446023;26;20019;-61
2024/04/13 06:16:28;;;;;;;1.67;0.60;;;;;;;12.33;99.17;101064.97;5463926;26;20944;-62
2024/04/13 06:18:55;;;;;;;2.97;0.60;;;;;;;12.34;99.43;101059.06;5477976;26;20651;-61
2024/04/13 06:21:26;;;;;;;2.47;0.77;;;;;;;12.37;99.47;101063.94;5460875;26;20339;-61
2024/04/13 06:23:54;;;;;;;2.80;0.50;;;;;;;12.39;99.04;101069.94;5452773;26;20006;-61
2024/04/13 06:26:21;;;;;;;0.63;0.60;;;;;;;12.42;99.19;101054.53;5480901;26;20018;-61
2024/04/13 06:28:50;;;;;;;1.60;0.60;;;;;;;12.45;99.15;101048.28;5467438;26;19999;-61
2024/04/13 06:31:17;;;;;;;1.67;0.55;;;;;;;12.48;99.16;101042.03;5449410;26;20017;-64
2024/04/13 06:33:45;;;;;;;1.08;0.47;;;;;;;12.49;99.21;101043.66;5468105;26;20489;-61
2024/04/13 06:36:12;;;;;;;2.90;0.77;;;;;;;12.48;99.26;101042.84;5481516;26;20006;-61
2024/04/13 06:38:40;;;;;;;1.13;0.55;;;;;;;12.49;99.17;101033.38;5469882;26;20018;-61
2024/04/13 06:41:09;;;;;;;3.33;1.00;;;;;;;12.48;99.04;101017.88;5446800;26;20002;-62
2024/04/13 06:43:36;;;;;;;1.88;0.40;;;;;;;12.49;98.96;101022.28;5467408;26;20075;-61
2024/04/13 06:46:03;;;;;;;1.50;0.63;;;;;;;12.48;99.21;101026.19;5452959;26;20030;-61
2024/04/13 06:48:31;;;;;;;4.35;1.02;;;;;;;12.47;99.00;101024.56;5463355;26;20017;-61
2024/04/13 06:50:58;;;;;;;5.78;0.70;;;;;;;12.50;99.14;101012.75;5479539;26;20014;-61
2024/04/13 06:53:26;;;;;;;4.63;0.88;;;;;;;12.54;99.23;101023.97;5476575;26;20409;-62
2024/04/13 06:55:53;;;;;;;2.42;0.60;;;;;;;12.53;98.88;101023.16;5473298;26;20828;-61
2024/04/13 06:58:23;;;;;;;1.95;0.55;;;;;;;12.55;99.17;101026.38;5464265;26;20002;-61
2024/04/13 07:00:57;;;;;;;1.25;0.45;;;;;;;12.56;98.87;101022.47;5457116;26;20039;-62
2024/04/13 07:03:25;;;;;;;2.53;0.70;;;;;;;12.58;98.92;101031.25;5451025;26;20058;-62
2024/04/13 07:05:57;;;;;;;8.25;1.20;;;;;;;12.59;98.95;101024.53;5474029;26;20002;-62
2024/04/13 07:08:28;;;;;;;2.17;0.65;;;;;;;12.62;98.88;101023.03;5453383;26;20013;-62
2024/04/13 07:10:57;;;;;;;2.15;0.70;;;;;;;12.66;98.81;101021.97;5475428;26;20002;-61
2024/04/13 07:13:25;;;;;;;0.63;0.50;;;;;;;12.67;98.68;101018.03;5459849;26;20379;-62
2024/04/13 07:15:52;;;;;;;0.90;0.40;;;;;;;12.69;98.64;101001.81;5451831;26;20421;-62
2024/04/13 07:18:20;;;;;;;1.17;0.40;;;;;;;12.72;98.50;101012.22;5419766;26;20038;-62
2024/04/13 07:20:47;;;;;;;7.38;1.38;;;;;;;12.72;98.34;100995.56;5451380;26;20022;-62
2024/04/13 07:23:16;;;;;;;4.15;0.60;;;;;;;12.77;98.33;100994.50;5462923;26;20017;-62
2024/04/13 07:25:44;;;;;;;4.10;1.67;;;;;;;12.81;98.54;100979.53;5461880;26;20009;-61
2024/04/13 07:28:11;;;;;;;2.40;0.57;;;;;;;12.88;98.41;100978.13;5451418;26;20003;-61
2024/04/13 07:30:39;;;;;;;1.02;0.47;;;;;;;12.92;98.24;100979.03;5473684;26;20002;-62
2024/04/13 07:33:07;;;;;;;1.58;0.40;;;;;;;12.96;98.11;100975.19;5463954;26;20015;-62
2024/04/13 07:35:34;;;;;;;1.15;0.55;;;;;;;13.00;98.15;100970.53;5453227;26;20013;-61
2024/04/13 07:38:02;;;;;;;5.30;0.52;;;;;;;13.08;97.72;100963.25;5480767;26;20010;-62
2024/04/13 07:40:30;;;;;;;2.53;1.85;;;;;;;13.09;97.55;100960.09;5468030;26;20013;-62
2024/04/13 07:42:58;;;;;;;0.98;0.45;;;;;;;13.16;97.33;100940.00;5446652;26;20017;-62
2024/04/13 07:45:25;;;;;;;0.68;0.50;;;;;;;13.25;97.44;100949.78;5470605;26;20018;-63
2024/04/13 07:47:53;;;;;;;4.05;0.52;;;;;;;13.32;97.43;100949.97;5475793;26;20003;-62
2024/04/13 07:50:20;;;;;;;5.28;0.52;;;;;;;13.42;97.16;100954.19;5455837;26;20076;-62
2024/04/13 07:52:48;;;;;;;3.15;0.73;;;;;;;13.51;97.28;100951.22;5450442;26;20076;-62
2024/04/13 07:55:15;;;;;;;2.35;0.28;;;;;;;13.55;96.79;100930.69;5482744;26;19998;-62
2024/04/13 07:57:44;;;;;;;3.67;1.15;;;;;;;13.58;96.89;100946.63;5478920;26;20079;-62
2024/04/13 08:00:13;;;;;;;0.47;0.38;;;;;;;13.61;96.55;100951.47;5446117;26;20010;-62
2024/04/13 08:02:44;;;;;;;2.45;0.30;;;;;;;13.63;96.24;100943.59;5464745;26;20006;-61
2024/04/13 08:05:11;;;;;;;0.40;0.38;;;;;;;13.69;96.36;100947.69;5461031;26;20025;-62
2024/04/13 08:07:39;;;;;;;0.30;0.30;;;;;;;13.71;95.79;100933.44;5462332;26;20045;-61
2024/04/13 08:10:07;;;;;;;2.70;0.45;;;;;;;13.74;95.83;100933.50;5455650;26;20002;-62
2024/04/13 08:12:35;;;;;;;0.50;0.13;;;;;;;13.80;95.73;100932.06;5452115;26;20339;-61
2024/04/13 08:15:10;;;;;;;0.70;0.38;;;;;;;13.87;95.57;100923.88;5438616;26;20006;-61
2024/04/13 08:17:38;;;;;;;0.25;0.22;;;;;;;13.94;95.68;100917.66;5457911;26;19998;-62
2024/04/13 08:20:08;;;;;;;3.05;0.50;;;;;;;14.00;95.09;100905.09;5469134;26;20051;-60
2024/04/13 08:22:37;;;;;;;0.83;0.20;;;;;;;14.04;95.06;100908.75;5473422;26;20449;-62
2024/04/13 08:25:04;;;;;;;1.35;0.57;;;;;;;14.16;95.09;100914.19;5469402;26;20018;-61
2024/04/13 08:27:33;;;;;;;0.52;0.25;;;;;;;14.27;95.40;100911.63;5466032;26;20010;-61
2024/04/13 08:30:01;;;;;;;0.40;0.10;;;;;;;14.30;94.62;100885.81;5462680;26;20003;-61
2024/04/13 08:32:29;;;;;;;3.72;0.17;;;;;;;14.38;95.23;100891.19;5471635;26;20169;-61
2024/04/13 08:34:56;;;;;;;2.92;0.40;;;;;;;14.52;95.33;100887.88;5462953;26;20037;-60
2024/04/13 08:37:24;;;;;;;1.45;0.38;;;;;;;14.62;94.75;100895.63;5477012;26;20048;-62
2024/04/13 08:39:51;;;;;;;4.13;0.57;;;;;;;14.72;94.23;100895.03;5478048;26;20859;-61
2024/04/13 08:42:40;;;;;;;2.13;0.20;;;;;;;14.89;94.20;100886.22;5471489;26;20006;-60
2024/04/13 08:45:09;;;;;;;3.13;0.20;;;;;;;15.11;93.42;100891.00;5457747;26;20020;-63
2024/04/13 08:47:41;;;;;;;0.80;0.28;;;;;;;15.37;92.48;100892.19;5465453;26;20010;-60
2024/04/13 08:50:09;;;;;;;1.23;0.20;;;;;;;15.78;91.79;100894.06;5473683;26;20002;-62
2024/04/13 08:52:40;;;;;;;0.73;0.10;;;;;;;16.12;89.90;100895.75;5478413;26;20348;-60
2024/04/13 08:55:07;;;;;;;1.08;0.20;;;;;;;16.09;89.42;100895.72;5455190;26;20022;-60
2024/04/13 08:57:38;;;;;;;2.70;0.30;;;;;;;16.12;88.85;100889.38;5468571;26;20014;-59
2024/04/13 09:00:14;;;;;;;0.30;0.10;;;;;;;16.52;88.21;100891.47;5478302;26;20010;-60
2024/04/13 09:02:47;;;;;;;0.63;0.20;;;;;;;16.85;86.67;100902.63;5461043;26;20791;-60
2024/04/13 09:05:15;;;;;;;1.30;0.20;;;;;;;16.99;85.51;100880.41;5454321;26;20329;-61
2024/04/13 09:07:44;;;;;;;6.90;0.60;;;;;;;17.28;84.27;100879.47;5460166;26;20006;-60
2024/04/13 09:10:12;;;;;;;0.38;0.10;;;;;;;17.30;82.75;100885.47;5471120;26;20002;-60
2024/04/13 09:12:39;;;;;;;3.45;0.70;;;;;;;16.95;81.37;100882.34;5470794;26;20299;-60
2024/04/13 09:15:07;;;;;;;2.42;0.30;;;;;;;16.63;81.11;100864.44;5462016;26;20078;-60
2024/04/13 09:17:35;;;;;;;0.30;0.10;;;;;;;16.36;80.74;100870.09;5473835;26;20471;-61
2024/04/13 09:20:07;;;;;;;0.45;0.10;;;;;;;16.15;80.34;100867.03;5476360;26;20012;-60
2024/04/13 09:22:36;;;;;;;1.52;0.30;;;;;;;16.25;81.40;100888.75;5463965;26;20009;-61
2024/04/13 09:25:04;;;;;;;2.22;0.20;;;;;;;16.83;80.86;100866.69;5468473;26;20468;-61
2024/04/13 09:27:34;;;;;;;1.00;0.40;;;;;;;17.13;77.73;100860.16;5455755;26;20014;-61
2024/04/13 09:30:09;;;;;;;1.05;0.65;;;;;;;17.50;77.18;100870.03;5456434;26;20348;-61
2024/04/13 09:32:38;;;;;;;6.03;0.68;;;;;;;17.89;75.38;100869.53;5477758;26;20504;-60
2024/04/13 09:35:10;;;;;;;0.73;0.15;;;;;;;17.94;73.76;100853.16;5461056;26;19998;-62
2024/04/13 09:37:37;;;;;;;0.88;0.30;;;;;;;18.04;73.46;100854.38;5466626;26;20061;-61
2024/04/13 09:40:06;;;;;;;3.15;0.60;;;;;;;18.64;72.28;100849.81;5475280;26;20488;-61
2024/04/13 09:42:34;;;;;;;1.05;0.40;;;;;;;19.49;70.49;100860.31;5469816;26;20010;-61
2024/04/13 09:45:05;;;;;;;1.85;0.30;;;;;;;20.06;68.67;100844.94;5462589;26;20042;-62
2024/04/13 09:47:33;;;;;;;3.03;0.20;;;;;;;20.19;66.71;100837.66;5477314;26;20067;-61
2024/04/13 09:50:01;;;;;;;2.05;0.20;;;;;;;20.04;65.98;100848.16;5470799;26;20466;-61
2024/04/13 09:52:28;;;;;;;0.13;0.00;;;;;;;20.29;65.14;100844.47;5470879;26;20010;-62
2024/04/13 09:54:56;;;;;;;0.40;0.17;;;;;;;20.21;63.61;100848.50;5468644;26;20600;-61
2024/04/13 09:57:25;;;;;;;1.65;0.20;;;;;;;20.07;63.27;100857.00;5460556;26;20321;-62
2024/04/13 09:59:54;;;;;;;2.20;0.40;;;;;;;19.95;61.85;100864.66;5455699;26;20601;-62
2024/04/13 10:02:21;;;;;;;1.23;0.30;;;;;;;19.84;61.74;100855.44;5468508;26;20437;-61
2024/04/13 10:04:50;;;;;;;0.70;0.10;;;;;;;19.91;60.82;100866.66;5463303;26;20630;-62
2024/04/13 10:07:19;;;;;;;2.17;0.20;;;;;;;19.81;59.63;100856.25;5477119;26;20038;-62
2024/04/13 10:09:50;;;;;;;0.30;0.10;;;;;;;19.38;59.11;100854.72;5469186;26;20079;-62
2024/04/13 10:12:23;;;;;;;0.90;0.17;;;;;;;19.03;60.97;100846.28;5461846;26;20456;-61
2024/04/13 10:14:52;;;;;;;0.32;0.13;;;;;;;19.30;60.21;100848.28;5480912;26;20021;-61
2024/04/13 10:17:20;;;;;;;2.33;0.22;;;;;;;19.11;58.10;100834.66;5474609;26;20043;-61
2024/04/13 10:19:48;;;;;;;0.43;0.20;;;;;;;18.94;58.51;100840.25;5468511;26;20002;-62
2024/04/13 10:22:15;;;;;;;2.60;0.17;;;;;;;18.65;58.61;100834.59;5463237;26;20002;-62
2024/04/13 10:25:06;;;;;;;0.82;0.30;;;;;;;18.52;58.83;100836.19;5474971;26;20010;-61
2024/04/13 10:27:35;;;;;;;1.02;0.20;;;;;;;18.98;57.90;100835.47;5454582;26;20449;-62
2024/04/13 10:30:03;;;;;;;3.15;0.20;;;;;;;18.78;57.09;100833.03;5467625;26;20006;-62
2024/04/13 10:32:31;;;;;;;1.27;0.30;;;;;;;18.37;57.53;100837.31;5480040;26;20086;-62
2024/04/13 10:35:09;;;;;;;1.80;1.20;;;;;;;17.95;58.76;100828.75;5467076;26;20010;-62
2024/04/13 10:37:37;;;;;;;1.17;0.20;;;;;;;18.14;58.33;100832.00;5456634;26;20013;-62
2024/04/13 10:40:06;;;;;;;0.30;0.15;;;;;;;18.60;57.41;100815.38;5471635;26;20013;-62
2024/04/13 10:42:38;;;;;;;1.60;0.38;;;;;;;18.97;56.11;100822.63;5459910;26;20010;-62
2024/04/13 10:45:19;;;;;;;1.50;0.20;;;;;;;19.25;55.15;100822.59;5459275;26;20014;-61
2024/04/13 10:47:47;;;;;;;3.45;0.30;;;;;;;19.26;54.32;100839.06;5468213;26;20010;-62
2024/04/13 10:50:18;;;;;;;1.65;0.40;;;;;;;19.22;53.91;100840.28;5479379;26;20013;-62
2024/04/13 10:52:45;;;;;;;1.20;0.30;;;;;;;19.10;53.80;100843.47;5476784;26;20006;-62
2024/04/13 10:55:17;;;;;;;3.83;0.30;;;;;;;18.91;54.16;100841.84;5452094;26;20085;-62
2024/04/13 10:57:49;;;;;;;4.07;0.45;;;;;;;18.56;54.72;100847.41;5479145;26;20017;-62
2024/04/13 11:00:18;;;;;;;;;;;;;;;18.22;56.36;100855.25;5462882;26;20017;-62
2024/04/13 11:02:48;;;;;;;1.75;0.40;;;;;;;18.08;56.07;100838.41;5479319;26;20482;-62
2024/04/13 11:05:19;;;;;;;2.65;0.40;;;;;;;17.93;56.21;100833.91;5465546;26;20026;-62
2024/04/13 11:07:50;;;;;;;1.38;0.20;;;;;;;17.75;56.29;100824.63;5452110;26;20620;-62
2024/04/13 11:10:19;;;;;;;0.85;0.35;;;;;;;17.67;56.36;100825.78;5456096;26;20010;-62
2024/04/13 11:12:49;;;;;;;1.40;0.30;;;;;;;17.56;57.25;100840.50;5478934;26;20003;-62
2024/04/13 11:15:17;;;;;;;1.25;0.30;;;;;;;17.44;57.11;100838.00;5478509;26;20055;-63
2024/04/13 11:17:44;;;;;;;0.60;0.40;;;;;;;17.48;57.46;100838.81;5423842;26;20007;-62
2024/04/13 11:20:12;;;;;;;5.05;2.20;;;;;;;17.48;57.09;100840.81;5455663;26;20007;-62
2024/04/13 11:22:39;;;;;;;0.47;0.30;;;;;;;17.38;57.16;100842.38;5456454;26;20040;-62
2024/04/13 11:25:08;;;;;;;1.27;0.30;;;;;;;17.30;57.90;100840.69;5469016;26;20074;-63
2024/04/13 11:27:38;;;;;;;2.27;0.50;;;;;;;17.27;58.66;100846.25;5465807;26;20010;-63
2024/04/13 11:30:06;;;;;;;2.42;0.95;;;;;;;17.23;59.05;100843.44;5466094;26;20015;-63